Time;durP1;ratioP1;P1;durP2;ratioP2;P2;SDS_P1;SDS_P2;PMS_P1;PMS_P2;Temp;Humidity;BMP_temperature;BMP_pressure;BME280_temperature;BME280_humidity;BME280_pressure;Samples;Min_cycle;Max_cycle;Signal;HPM_P1;HPM_P2
2023/08/23 00:00:31;;;;;;;0.00;0.00;;;;;;;;;;1728053;28;20748;-80
2023/08/23 00:01:22;;;;;;;0.00;0.00;;;;;;;;;;1731446;28;20239;-81
2023/08/23 00:02:14;;;;;;;0.00;0.00;;;;;;;;;;1727953;28;20204;-81
2023/08/23 00:03:05;;;;;;;0.00;0.00;;;;;;;;;;1731349;28;20252;-81
2023/08/23 00:03:57;;;;;;;0.00;0.00;;;;;;;;;;1733231;28;20219;-82
2023/08/23 00:04:49;;;;;;;0.00;0.00;;;;;;;;;;1731038;28;20314;-81
2023/08/23 00:05:43;;;;;;;0.00;0.00;;;;;;;;;;1730154;28;20231;-80
2023/08/23 00:06:36;;;;;;;0.00;0.00;;;;;;;;;;1727206;28;20252;-81
2023/08/23 00:07:27;;;;;;;0.00;0.00;;;;;;;;;;1730402;28;20803;-82
2023/08/23 00:08:19;;;;;;;0.00;0.00;;;;;;;;;;1727316;28;20201;-81
2023/08/23 00:09:10;;;;;;;0.00;0.00;;;;;;;;;;1731084;28;20238;-80
2023/08/23 00:10:05;;;;;;;0.00;0.00;;;;;;;;;;1727361;28;20266;-80
2023/08/23 00:10:56;;;;;;;0.00;0.00;;;;;;;;;;1727077;28;20300;-82
2023/08/23 00:11:47;;;;;;;0.00;0.00;;;;;;;;;;1728255;28;20212;-82
2023/08/23 00:12:39;;;;;;;0.00;0.00;;;;;;;;;;1729365;28;20543;-81
2023/08/23 00:13:30;;;;;;;0.00;0.00;;;;;;;;;;1728651;28;20806;-81
2023/08/23 00:14:21;;;;;;;0.00;0.00;;;;;;;;;;1731422;28;20211;-82
2023/08/23 00:15:13;;;;;;;0.00;0.00;;;;;;;;;;1727330;28;20207;-81
2023/08/23 00:16:05;;;;;;;0.00;0.00;;;;;;;;;;1728399;28;20252;-81
2023/08/23 00:16:56;;;;;;;0.00;0.00;;;;;;;;;;1727120;28;20227;-82
2023/08/23 00:17:48;;;;;;;0.00;0.00;;;;;;;;;;1728933;28;20598;-81
2023/08/23 00:18:39;;;;;;;0.00;0.00;;;;;;;;;;1727775;28;20299;-81
2023/08/23 00:19:30;;;;;;;0.00;0.00;;;;;;;;;;1729741;28;20204;-81
2023/08/23 00:20:22;;;;;;;0.00;0.00;;;;;;;;;;1726216;28;20220;-82
2023/08/23 00:21:13;;;;;;;0.00;0.00;;;;;;;;;;1728966;28;20236;-81
2023/08/23 00:22:05;;;;;;;0.00;0.00;;;;;;;;;;1729509;28;20204;-82
2023/08/23 00:22:57;;;;;;;0.00;0.00;;;;;;;;;;1731142;28;20266;-81
2023/08/23 00:23:48;;;;;;;0.00;0.00;;;;;;;;;;1729822;28;20317;-81
2023/08/23 00:24:40;;;;;;;0.00;0.00;;;;;;;;;;1729610;28;20649;-82
2023/08/23 00:25:32;;;;;;;0.00;0.00;;;;;;;;;;1727852;28;20200;-83
2023/08/23 00:26:23;;;;;;;0.00;0.00;;;;;;;;;;1730508;28;20276;-82
2023/08/23 00:27:14;;;;;;;0.00;0.00;;;;;;;;;;1728835;28;20279;-82
2023/08/23 00:28:06;;;;;;;0.00;0.00;;;;;;;;;;1729519;28;20458;-82
2023/08/23 00:28:57;;;;;;;0.00;0.00;;;;;;;;;;1728703;28;20232;-82
2023/08/23 00:29:48;;;;;;;0.00;0.00;;;;;;;;;;1727499;28;20242;-82
2023/08/23 00:30:40;;;;;;;0.00;0.00;;;;;;;;;;1728265;28;20236;-82
2023/08/23 00:31:32;;;;;;;0.00;0.00;;;;;;;;;;1724395;28;20212;-82
2023/08/23 00:32:24;;;;;;;0.00;0.00;;;;;;;;;;1730626;28;20200;-82
2023/08/23 00:33:15;;;;;;;0.00;0.00;;;;;;;;;;1729856;28;20646;-82
2023/08/23 00:34:07;;;;;;;0.00;0.00;;;;;;;;;;1729000;28;20263;-82
2023/08/23 00:34:58;;;;;;;0.00;0.00;;;;;;;;;;1728838;28;20687;-82
2023/08/23 00:35:49;;;;;;;0.00;0.00;;;;;;;;;;1729916;28;20240;-82
2023/08/23 00:36:41;;;;;;;0.00;0.00;;;;;;;;;;1733851;28;20211;-82
2023/08/23 00:37:33;;;;;;;0.00;0.00;;;;;;;;;;1729513;28;20239;-83
2023/08/23 00:38:25;;;;;;;0.00;0.00;;;;;;;;;;1728626;28;20212;-83
2023/08/23 00:39:16;;;;;;;0.00;0.00;;;;;;;;;;1733429;28;20208;-83
2023/08/23 00:40:08;;;;;;;0.00;0.00;;;;;;;;;;1730419;28;20212;-83
2023/08/23 00:41:00;;;;;;;0.00;0.00;;;;;;;;;;1729333;28;20299;-83
2023/08/23 00:41:51;;;;;;;0.00;0.00;;;;;;;;;;1730131;28;20205;-83
2023/08/23 00:42:43;;;;;;;0.00;0.00;;;;;;;;;;1734131;28;20613;-83
2023/08/23 00:43:35;;;;;;;0.00;0.00;;;;;;;;;;1730992;28;20211;-83
2023/08/23 00:44:26;;;;;;;0.00;0.00;;;;;;;;;;1731366;28;20267;-83
2023/08/23 00:45:18;;;;;;;0.00;0.00;;;;;;;;;;1728784;28;20204;-84
2023/08/23 00:46:09;;;;;;;0.00;0.00;;;;;;;;;;1730311;28;20232;-84
2023/08/23 00:47:01;;;;;;;0.00;0.00;;;;;;;;;;1733472;28;20260;-84
2023/08/23 00:47:52;;;;;;;0.00;0.00;;;;;;;;;;1731295;28;20251;-84
2023/08/23 00:48:43;;;;;;;0.00;0.00;;;;;;;;;;1735798;28;20294;-85
2023/08/23 00:49:35;;;;;;;0.00;0.00;;;;;;;;;;1732475;28;20224;-85
2023/08/23 00:50:26;;;;;;;0.00;0.00;;;;;;;;;;1733177;28;20254;-84
2023/08/23 00:51:18;;;;;;;0.00;0.00;;;;;;;;;;1731225;28;20460;-84
2023/08/23 00:52:10;;;;;;;0.00;0.00;;;;;;;;;;1731684;28;20321;-83
2023/08/23 00:53:03;;;;;;;0.00;0.00;;;;;;;;;;1729313;28;20286;-83
2023/08/23 00:53:55;;;;;;;0.00;0.00;;;;;;;;;;1732857;28;20258;-83
2023/08/23 00:54:46;;;;;;;0.00;0.00;;;;;;;;;;1729400;28;20256;-83
2023/08/23 00:55:37;;;;;;;0.00;0.00;;;;;;;;;;1731463;28;20318;-84
2023/08/23 00:56:30;;;;;;;0.00;0.00;;;;;;;;;;1730701;28;20204;-84
2023/08/23 00:57:22;;;;;;;0.00;0.00;;;;;;;;;;1732913;28;20228;-84
2023/08/23 00:58:13;;;;;;;0.00;0.00;;;;;;;;;;1731188;28;20200;-84
2023/08/23 00:59:05;;;;;;;0.00;0.00;;;;;;;;;;1733000;28;20196;-84
2023/08/23 00:59:56;;;;;;;0.00;0.00;;;;;;;;;;1730649;28;20283;-84
2023/08/23 01:00:48;;;;;;;0.00;0.00;;;;;;;;;;1730594;28;20522;-84
2023/08/23 01:01:40;;;;;;;0.00;0.00;;;;;;;;;;1730491;28;20585;-84
2023/08/23 01:02:33;;;;;;;0.00;0.00;;;;;;;;;;1731693;28;20258;-84
2023/08/23 01:03:25;;;;;;;0.00;0.00;;;;;;;;;;1734967;28;20634;-84
2023/08/23 01:04:16;;;;;;;0.00;0.00;;;;;;;;;;1731157;28;20564;-84
2023/08/23 01:05:07;;;;;;;0.00;0.00;;;;;;;;;;1731440;28;20242;-84
2023/08/23 01:06:07;;;;;;;0.00;0.00;;;;;;;;;;1730966;28;20231;-83
2023/08/23 01:07:04;;;;;;;0.00;0.00;;;;;;;;;;1734677;28;20228;-83
2023/08/23 01:08:00;;;;;;;0.00;0.00;;;;;;;;;;1731094;28;20555;-83
2023/08/23 01:08:56;;;;;;;0.00;0.00;;;;;;;;;;1730753;28;20586;-83
2023/08/23 01:09:51;;;;;;;0.00;0.00;;;;;;;;;;1730210;28;20208;-83
2023/08/23 01:10:47;;;;;;;0.00;0.00;;;;;;;;;;1732849;28;20680;-84
2023/08/23 01:11:42;;;;;;;0.00;0.00;;;;;;;;;;1730598;28;20224;-84
2023/08/23 01:12:38;;;;;;;0.00;0.00;;;;;;;;;;1732220;28;20246;-83
2023/08/23 01:13:32;;;;;;;0.00;0.00;;;;;;;;;;1735362;28;20203;-84
2023/08/23 01:14:27;;;;;;;0.00;0.00;;;;;;;;;;1730847;28;20267;-84
2023/08/23 01:15:19;;;;;;;0.00;0.00;;;;;;;;;;1730018;28;20232;-83
2023/08/23 01:16:11;;;;;;;0.00;0.00;;;;;;;;;;1728480;28;20248;-83
2023/08/23 01:17:03;;;;;;;0.00;0.00;;;;;;;;;;1732128;28;20263;-83
2023/08/23 01:17:54;;;;;;;0.00;0.00;;;;;;;;;;1728623;28;20315;-83
2023/08/23 01:18:45;;;;;;;0.00;0.00;;;;;;;;;;1727406;28;20199;-83
2023/08/23 01:19:40;;;;;;;0.00;0.00;;;;;;;;;;1728428;28;20203;-83
2023/08/23 01:20:32;;;;;;;0.00;0.00;;;;;;;;;;1729395;28;20262;-83
2023/08/23 01:21:26;;;;;;;0.00;0.00;;;;;;;;;;1729049;28;20251;-83
2023/08/23 01:22:18;;;;;;;0.00;0.00;;;;;;;;;;1733482;28;20278;-82
2023/08/23 01:23:13;;;;;;;0.00;0.00;;;;;;;;;;1728609;28;20212;-80
2023/08/23 01:24:08;;;;;;;0.00;0.00;;;;;;;;;;1730041;28;20219;-80
2023/08/23 01:24:59;;;;;;;0.00;0.00;;;;;;;;;;1727138;28;20224;-80
2023/08/23 01:25:51;;;;;;;0.00;0.00;;;;;;;;;;1728369;28;20294;-80
2023/08/23 01:26:43;;;;;;;0.00;0.00;;;;;;;;;;1730947;28;20203;-80
2023/08/23 01:27:35;;;;;;;0.00;0.00;;;;;;;;;;1728677;28;20232;-80
2023/08/23 01:28:27;;;;;;;0.00;0.00;;;;;;;;;;1726398;28;20319;-81
2023/08/23 01:29:18;;;;;;;0.00;0.00;;;;;;;;;;1729754;28;20831;-82
2023/08/23 01:30:10;;;;;;;0.00;0.00;;;;;;;;;;1730597;28;20242;-82
2023/08/23 01:31:04;;;;;;;0.00;0.00;;;;;;;;;;1730238;28;20628;-82
2023/08/23 01:31:57;;;;;;;0.00;0.00;;;;;;;;;;1732182;28;20296;-81
2023/08/23 01:32:53;;;;;;;0.00;0.00;;;;;;;;;;1732688;28;20204;-81
2023/08/23 01:33:47;;;;;;;0.00;0.00;;;;;;;;;;1730031;28;20297;-82
2023/08/23 01:34:41;;;;;;;0.00;0.00;;;;;;;;;;1731020;28;20707;-82
2023/08/23 01:35:37;;;;;;;0.00;0.00;;;;;;;;;;1728559;28;20250;-82
2023/08/23 01:36:29;;;;;;;0.00;0.00;;;;;;;;;;1731995;28;20229;-82
2023/08/23 01:37:20;;;;;;;0.00;0.00;;;;;;;;;;1731867;28;20303;-81
2023/08/23 01:38:16;;;;;;;0.00;0.00;;;;;;;;;;1732980;28;20203;-82
2023/08/23 01:39:08;;;;;;;0.00;0.00;;;;;;;;;;1731322;28;20275;-82
2023/08/23 01:40:01;;;;;;;0.00;0.00;;;;;;;;;;1729324;28;20208;-82
2023/08/23 01:40:53;;;;;;;0.00;0.00;;;;;;;;;;1730529;28;20342;-82
2023/08/23 01:41:44;;;;;;;0.00;0.00;;;;;;;;;;1731748;28;20208;-82
2023/08/23 01:42:36;;;;;;;0.00;0.00;;;;;;;;;;1735895;28;20207;-82
2023/08/23 01:43:27;;;;;;;0.00;0.00;;;;;;;;;;1730026;28;20243;-82
2023/08/23 01:44:18;;;;;;;0.00;0.00;;;;;;;;;;1731374;28;20604;-81
2023/08/23 01:45:11;;;;;;;0.00;0.00;;;;;;;;;;1732315;28;20599;-81
2023/08/23 01:46:02;;;;;;;0.00;0.00;;;;;;;;;;1729103;28;20244;-81
2023/08/23 01:46:53;;;;;;;0.00;0.00;;;;;;;;;;1731652;28;20251;-81
2023/08/23 01:47:45;;;;;;;0.00;0.00;;;;;;;;;;1732167;28;20674;-82
2023/08/23 01:48:36;;;;;;;0.00;0.00;;;;;;;;;;1731407;28;20247;-82
2023/08/23 01:49:27;;;;;;;0.00;0.00;;;;;;;;;;1728124;28;20236;-81
2023/08/23 01:50:19;;;;;;;0.00;0.00;;;;;;;;;;1728815;28;20611;-81
2023/08/23 01:51:10;;;;;;;0.00;0.00;;;;;;;;;;1729373;28;20228;-81
2023/08/23 01:52:01;;;;;;;0.00;0.00;;;;;;;;;;1732056;28;20246;-81
2023/08/23 01:52:53;;;;;;;0.00;0.00;;;;;;;;;;1730460;28;20212;-81
2023/08/23 01:53:46;;;;;;;0.00;0.00;;;;;;;;;;1729857;28;20200;-82
2023/08/23 01:54:37;;;;;;;0.00;0.00;;;;;;;;;;1729584;28;20212;-82
2023/08/23 01:55:29;;;;;;;0.00;0.00;;;;;;;;;;1725904;28;20208;-81
2023/08/23 01:56:20;;;;;;;0.00;0.00;;;;;;;;;;1730741;28;20661;-81
2023/08/23 01:57:12;;;;;;;0.00;0.00;;;;;;;;;;1729029;28;20205;-81
2023/08/23 01:58:03;;;;;;;0.00;0.00;;;;;;;;;;1729269;28;20350;-81
2023/08/23 01:58:54;;;;;;;0.00;0.00;;;;;;;;;;1729072;28;20197;-82
2023/08/23 01:59:46;;;;;;;0.00;0.00;;;;;;;;;;1729985;28;20206;-81
2023/08/23 02:00:37;;;;;;;0.00;0.00;;;;;;;;;;1727976;28;20693;-81
2023/08/23 02:01:29;;;;;;;0.00;0.00;;;;;;;;;;1729110;28;20223;-81
2023/08/23 02:02:20;;;;;;;0.00;0.00;;;;;;;;;;1728978;28;20223;-81
2023/08/23 02:03:12;;;;;;;0.00;0.00;;;;;;;;;;1729198;28;20209;-81
2023/08/23 02:04:03;;;;;;;0.00;0.00;;;;;;;;;;1730159;28;20247;-81
2023/08/23 02:04:55;;;;;;;0.00;0.00;;;;;;;;;;1729125;28;20208;-81
2023/08/23 02:05:47;;;;;;;0.00;0.00;;;;;;;;;;1728356;28;20324;-81
2023/08/23 02:06:38;;;;;;;0.00;0.00;;;;;;;;;;1729701;28;20201;-81
2023/08/23 02:07:30;;;;;;;0.00;0.00;;;;;;;;;;1728726;28;20231;-81
2023/08/23 02:08:21;;;;;;;0.00;0.00;;;;;;;;;;1733742;28;20239;-82
2023/08/23 02:09:13;;;;;;;0.00;0.00;;;;;;;;;;1729532;28;20208;-82
2023/08/23 02:10:06;;;;;;;0.00;0.00;;;;;;;;;;1729218;28;20212;-81
2023/08/23 02:10:57;;;;;;;0.00;0.00;;;;;;;;;;1729012;28;20270;-81
2023/08/23 02:11:49;;;;;;;0.00;0.00;;;;;;;;;;1733244;28;20219;-81
2023/08/23 02:12:40;;;;;;;0.00;0.00;;;;;;;;;;1728484;28;20224;-81
2023/08/23 02:13:32;;;;;;;0.00;0.00;;;;;;;;;;1729161;28;20266;-82
2023/08/23 02:14:23;;;;;;;0.00;0.00;;;;;;;;;;1728348;28;20227;-81
2023/08/23 02:15:14;;;;;;;0.00;0.00;;;;;;;;;;1729234;28;20208;-81
2023/08/23 02:16:06;;;;;;;0.00;0.00;;;;;;;;;;1729377;28;20199;-81
2023/08/23 02:16:57;;;;;;;0.00;0.00;;;;;;;;;;1728594;28;20254;-81
2023/08/23 02:17:51;;;;;;;0.00;0.00;;;;;;;;;;1728911;28;20232;-81
2023/08/23 02:18:42;;;;;;;0.00;0.00;;;;;;;;;;1728661;28;20205;-81
2023/08/23 02:19:33;;;;;;;0.00;0.00;;;;;;;;;;1728716;28;20204;-81
2023/08/23 02:20:25;;;;;;;0.00;0.00;;;;;;;;;;1727705;28;20636;-81
2023/08/23 02:21:16;;;;;;;0.00;0.00;;;;;;;;;;1729324;28;20243;-80
2023/08/23 02:22:08;;;;;;;0.00;0.00;;;;;;;;;;1728646;28;20205;-80
2023/08/23 02:22:59;;;;;;;0.00;0.00;;;;;;;;;;1732078;28;20209;-80
2023/08/23 02:23:50;;;;;;;0.00;0.00;;;;;;;;;;1731663;28;20580;-80
2023/08/23 02:24:43;;;;;;;0.00;0.00;;;;;;;;;;1728819;28;20200;-80
2023/08/23 02:25:34;;;;;;;0.00;0.00;;;;;;;;;;1728280;28;20348;-80
2023/08/23 02:26:27;;;;;;;0.00;0.00;;;;;;;;;;1728649;28;20254;-80
2023/08/23 02:27:19;;;;;;;0.00;0.00;;;;;;;;;;1729128;28;20227;-80
2023/08/23 02:28:10;;;;;;;0.00;0.00;;;;;;;;;;1732060;28;20252;-80
2023/08/23 02:29:01;;;;;;;0.00;0.00;;;;;;;;;;1730053;28;20208;-80
2023/08/23 02:29:53;;;;;;;0.00;0.00;;;;;;;;;;1729355;28;20200;-80
2023/08/23 02:30:44;;;;;;;0.00;0.00;;;;;;;;;;1728656;28;20267;-80
2023/08/23 02:31:35;;;;;;;0.00;0.00;;;;;;;;;;1729097;28;20577;-81
2023/08/23 02:32:27;;;;;;;0.00;0.00;;;;;;;;;;1728011;28;20678;-81
2023/08/23 02:33:18;;;;;;;0.00;0.00;;;;;;;;;;1731920;28;20463;-81
2023/08/23 02:34:09;;;;;;;0.00;0.00;;;;;;;;;;1727633;28;20241;-81
2023/08/23 02:35:02;;;;;;;0.00;0.00;;;;;;;;;;1727174;28;20521;-81
2023/08/23 02:35:53;;;;;;;0.00;0.00;;;;;;;;;;1726742;28;20255;-80
2023/08/23 02:36:45;;;;;;;0.00;0.00;;;;;;;;;;1732762;28;20207;-80
2023/08/23 02:37:36;;;;;;;0.00;0.00;;;;;;;;;;1723660;28;20235;-80
2023/08/23 02:38:27;;;;;;;0.00;0.00;;;;;;;;;;1727095;28;20299;-80
2023/08/23 02:39:20;;;;;;;0.00;0.00;;;;;;;;;;1729404;28;20394;-80
2023/08/23 02:40:13;;;;;;;0.00;0.00;;;;;;;;;;1728274;28;20228;-81
2023/08/23 02:41:05;;;;;;;0.00;0.00;;;;;;;;;;1726671;28;20231;-80
2023/08/23 02:41:57;;;;;;;0.00;0.00;;;;;;;;;;1731653;28;20239;-82
2023/08/23 02:42:48;;;;;;;0.00;0.00;;;;;;;;;;1731315;28;20203;-82
2023/08/23 02:43:40;;;;;;;0.00;0.00;;;;;;;;;;1731967;28;20226;-82
2023/08/23 02:44:31;;;;;;;0.00;0.00;;;;;;;;;;1727910;28;20640;-81
2023/08/23 02:45:22;;;;;;;0.00;0.00;;;;;;;;;;1728051;28;20215;-81
2023/08/23 02:46:14;;;;;;;0.10;0.10;;;;;;;;;;1729057;28;20569;-81
2023/08/23 02:47:05;;;;;;;0.00;0.00;;;;;;;;;;1727967;28;20585;-82
2023/08/23 02:47:56;;;;;;;0.00;0.00;;;;;;;;;;1727801;28;20247;-81
2023/08/23 02:48:48;;;;;;;0.00;0.00;;;;;;;;;;1727975;28;20200;-81
2023/08/23 02:49:39;;;;;;;0.00;0.00;;;;;;;;;;1734525;28;20269;-82
2023/08/23 02:50:30;;;;;;;0.00;0.00;;;;;;;;;;1726987;28;20263;-81
2023/08/23 02:51:22;;;;;;;0.00;0.00;;;;;;;;;;1729100;28;20220;-82
2023/08/23 02:52:13;;;;;;;0.00;0.00;;;;;;;;;;1727162;28;20690;-82
2023/08/23 02:53:04;;;;;;;0.00;0.00;;;;;;;;;;1728420;28;20210;-82
2023/08/23 02:53:56;;;;;;;0.00;0.00;;;;;;;;;;1728369;28;20189;-82
2023/08/23 02:54:47;;;;;;;0.00;0.00;;;;;;;;;;1733966;28;20200;-82
2023/08/23 02:55:40;;;;;;;0.00;0.00;;;;;;;;;;1733503;28;20246;-82
2023/08/23 02:56:32;;;;;;;0.00;0.00;;;;;;;;;;1735072;28;20212;-81
2023/08/23 02:57:23;;;;;;;0.00;0.00;;;;;;;;;;1736297;28;20269;-81
2023/08/23 02:58:14;;;;;;;0.00;0.00;;;;;;;;;;1737239;28;20250;-81
2023/08/23 02:59:06;;;;;;;0.00;0.00;;;;;;;;;;1734171;28;20203;-81
2023/08/23 02:59:57;;;;;;;0.00;0.00;;;;;;;;;;1734320;28;20211;-81
2023/08/23 03:00:48;;;;;;;0.00;0.00;;;;;;;;;;1734958;28;20554;-81
2023/08/23 03:01:40;;;;;;;0.00;0.00;;;;;;;;;;1735300;28;20210;-81
2023/08/23 03:02:32;;;;;;;0.00;0.00;;;;;;;;;;1734850;28;20287;-80
2023/08/23 03:03:24;;;;;;;0.00;0.00;;;;;;;;;;1734552;28;20286;-80
2023/08/23 03:04:15;;;;;;;0.00;0.00;;;;;;;;;;1728800;28;20247;-80
2023/08/23 03:05:07;;;;;;;0.00;0.00;;;;;;;;;;1730874;28;20207;-80
2023/08/23 03:05:59;;;;;;;0.00;0.00;;;;;;;;;;1729028;28;20232;-80
2023/08/23 03:06:50;;;;;;;0.00;0.00;;;;;;;;;;1729380;28;20263;-80
2023/08/23 03:07:41;;;;;;;0.00;0.00;;;;;;;;;;1736301;28;20561;-80
2023/08/23 03:08:33;;;;;;;0.00;0.00;;;;;;;;;;1732934;28;20269;-80
2023/08/23 03:09:24;;;;;;;0.00;0.00;;;;;;;;;;1733065;28;20203;-80
2023/08/23 03:10:15;;;;;;;0.00;0.00;;;;;;;;;;1735970;28;20850;-80
2023/08/23 03:11:09;;;;;;;0.00;0.00;;;;;;;;;;1734846;28;20215;-80
2023/08/23 03:12:00;;;;;;;0.00;0.00;;;;;;;;;;1734472;28;20238;-80
2023/08/23 03:12:51;;;;;;;0.00;0.00;;;;;;;;;;1733846;28;20203;-80
2023/08/23 03:13:43;;;;;;;0.00;0.00;;;;;;;;;;1734361;28;20207;-80
2023/08/23 03:14:34;;;;;;;0.00;0.00;;;;;;;;;;1733375;28;20277;-80
2023/08/23 03:15:26;;;;;;;0.00;0.00;;;;;;;;;;1732967;28;20207;-79
2023/08/23 03:16:17;;;;;;;0.00;0.00;;;;;;;;;;1733785;28;20231;-79
2023/08/23 03:17:08;;;;;;;0.00;0.00;;;;;;;;;;1733614;28;20230;-79
2023/08/23 03:18:00;;;;;;;0.00;0.00;;;;;;;;;;1733270;28;20219;-80
2023/08/23 03:18:51;;;;;;;0.00;0.00;;;;;;;;;;1733142;28;20290;-80
2023/08/23 03:19:42;;;;;;;0.00;0.00;;;;;;;;;;1734151;28;20294;-80
2023/08/23 03:20:34;;;;;;;0.00;0.00;;;;;;;;;;1732911;28;20896;-80
2023/08/23 03:21:25;;;;;;;0.00;0.00;;;;;;;;;;1733992;28;20616;-80
2023/08/23 03:22:16;;;;;;;0.00;0.00;;;;;;;;;;1734170;28;20352;-79
2023/08/23 03:23:08;;;;;;;0.00;0.00;;;;;;;;;;1734589;28;20322;-79
2023/08/23 03:23:59;;;;;;;0.00;0.00;;;;;;;;;;1733792;28;20334;-79
2023/08/23 03:24:50;;;;;;;0.00;0.00;;;;;;;;;;1739662;28;20310;-79
2023/08/23 03:25:42;;;;;;;0.00;0.00;;;;;;;;;;1732897;28;20321;-81
2023/08/23 03:26:34;;;;;;;0.00;0.00;;;;;;;;;;1733575;28;20709;-81
2023/08/23 03:27:26;;;;;;;0.00;0.00;;;;;;;;;;1732998;28;20303;-79
2023/08/23 03:28:18;;;;;;;0.00;0.00;;;;;;;;;;1733996;28;20212;-80
2023/08/23 03:29:09;;;;;;;0.00;0.00;;;;;;;;;;1735709;28;20227;-80
2023/08/23 03:30:00;;;;;;;0.00;0.00;;;;;;;;;;1736532;28;20320;-80
2023/08/23 03:30:52;;;;;;;0.00;0.00;;;;;;;;;;1732821;28;20341;-80
2023/08/23 03:31:43;;;;;;;0.00;0.00;;;;;;;;;;1733887;28;20204;-80
2023/08/23 03:32:34;;;;;;;0.00;0.00;;;;;;;;;;1733332;28;20247;-80
2023/08/23 03:33:26;;;;;;;0.00;0.00;;;;;;;;;;1738060;28;20683;-81
2023/08/23 03:34:17;;;;;;;0.00;0.00;;;;;;;;;;1734264;28;20230;-79
2023/08/23 03:35:08;;;;;;;0.00;0.00;;;;;;;;;;1733807;28;20199;-80
2023/08/23 03:36:00;;;;;;;0.00;0.00;;;;;;;;;;1732475;28;20320;-79
2023/08/23 03:36:51;;;;;;;0.00;0.00;;;;;;;;;;1733802;28;20259;-80
2023/08/23 03:37:42;;;;;;;0.00;0.00;;;;;;;;;;1734959;28;20277;-79
2023/08/23 03:38:34;;;;;;;0.00;0.00;;;;;;;;;;1733898;28;20199;-81
2023/08/23 03:39:25;;;;;;;0.00;0.00;;;;;;;;;;1733889;28;20204;-82
2023/08/23 03:40:17;;;;;;;0.00;0.00;;;;;;;;;;1730695;28;20550;-80
2023/08/23 03:41:13;;;;;;;0.00;0.00;;;;;;;;;;1735238;28;20578;-80
2023/08/23 03:42:05;;;;;;;0.00;0.00;;;;;;;;;;1733962;28;20204;-81
2023/08/23 03:42:58;;;;;;;0.00;0.00;;;;;;;;;;1734335;28;20645;-81
2023/08/23 03:43:49;;;;;;;0.00;0.00;;;;;;;;;;1733889;28;20231;-80
2023/08/23 03:44:41;;;;;;;0.00;0.00;;;;;;;;;;1733624;28;20451;-80
2023/08/23 03:45:32;;;;;;;0.00;0.00;;;;;;;;;;1732658;28;20634;-80
2023/08/23 03:46:23;;;;;;;0.00;0.00;;;;;;;;;;1734278;28;20246;-79
2023/08/23 03:47:15;;;;;;;0.00;0.00;;;;;;;;;;1732902;28;20605;-80
2023/08/23 03:48:06;;;;;;;0.00;0.00;;;;;;;;;;1733496;28;20255;-80
2023/08/23 03:48:59;;;;;;;0.00;0.00;;;;;;;;;;1733810;28;20211;-81
2023/08/23 03:49:50;;;;;;;0.00;0.00;;;;;;;;;;1733963;28;20204;-82
2023/08/23 03:50:41;;;;;;;0.00;0.00;;;;;;;;;;1733848;28;20235;-80
2023/08/23 03:51:33;;;;;;;0.00;0.00;;;;;;;;;;1733445;28;20199;-79
2023/08/23 03:52:24;;;;;;;0.00;0.00;;;;;;;;;;1732736;28;20645;-78
2023/08/23 03:53:15;;;;;;;0.00;0.00;;;;;;;;;;1733343;28;20207;-78
2023/08/23 03:54:07;;;;;;;0.10;0.10;;;;;;;;;;1732823;28;20204;-79
2023/08/23 03:54:58;;;;;;;0.00;0.00;;;;;;;;;;1733304;28;20529;-78
2023/08/23 03:55:52;;;;;;;0.00;0.00;;;;;;;;;;1727628;28;20243;-79
2023/08/23 03:56:43;;;;;;;0.00;0.00;;;;;;;;;;1728849;28;20228;-79
2023/08/23 03:57:37;;;;;;;0.00;0.00;;;;;;;;;;1729329;28;20512;-79
2023/08/23 03:58:28;;;;;;;0.00;0.00;;;;;;;;;;1731599;28;20602;-79
2023/08/23 03:59:20;;;;;;;0.00;0.00;;;;;;;;;;1727696;28;20642;-79
2023/08/23 04:00:11;;;;;;;0.00;0.00;;;;;;;;;;1728265;28;20646;-78
2023/08/23 04:01:02;;;;;;;0.00;0.00;;;;;;;;;;1728375;28;20466;-78
2023/08/23 04:01:54;;;;;;;0.00;0.00;;;;;;;;;;1733352;28;20200;-80
2023/08/23 04:02:46;;;;;;;0.00;0.00;;;;;;;;;;1727490;28;20236;-81
2023/08/23 04:03:37;;;;;;;0.00;0.00;;;;;;;;;;1731762;28;20230;-80
2023/08/23 04:04:29;;;;;;;0.00;0.00;;;;;;;;;;1727930;28;20255;-79
2023/08/23 04:05:20;;;;;;;0.00;0.00;;;;;;;;;;1728571;28;20244;-80
2023/08/23 04:06:12;;;;;;;0.00;0.00;;;;;;;;;;1730183;28;20254;-80
2023/08/23 04:07:03;;;;;;;0.00;0.00;;;;;;;;;;1728087;28;20572;-80
2023/08/23 04:07:55;;;;;;;0.00;0.00;;;;;;;;;;1727196;28;20650;-80
2023/08/23 04:08:47;;;;;;;0.00;0.00;;;;;;;;;;1727442;28;20238;-80
2023/08/23 04:09:38;;;;;;;0.00;0.00;;;;;;;;;;1727949;28;20206;-80
2023/08/23 04:10:30;;;;;;;0.00;0.00;;;;;;;;;;1731975;28;20298;-79
2023/08/23 04:11:21;;;;;;;0.00;0.00;;;;;;;;;;1735916;28;20380;-79
2023/08/23 04:12:13;;;;;;;0.00;0.00;;;;;;;;;;1736227;28;20195;-79
2023/08/23 04:13:06;;;;;;;0.00;0.00;;;;;;;;;;1733898;28;20365;-80
2023/08/23 04:13:57;;;;;;;0.00;0.00;;;;;;;;;;1732521;28;20214;-80
2023/08/23 04:14:49;;;;;;;0.00;0.00;;;;;;;;;;1726427;28;20204;-80
2023/08/23 04:15:41;;;;;;;0.00;0.00;;;;;;;;;;1734956;28;20328;-81
2023/08/23 04:16:32;;;;;;;0.00;0.00;;;;;;;;;;1733208;28;20213;-82
2023/08/23 04:17:24;;;;;;;0.00;0.00;;;;;;;;;;1728369;28;20210;-80
2023/08/23 04:18:15;;;;;;;0.00;0.00;;;;;;;;;;1727278;28;20283;-81
2023/08/23 04:19:08;;;;;;;0.00;0.00;;;;;;;;;;1728949;28;20264;-81
2023/08/23 04:19:59;;;;;;;0.00;0.00;;;;;;;;;;1732610;28;20204;-81
2023/08/23 04:20:58;;;;;;;0.00;0.00;;;;;;;;;;1733972;28;20235;-82
2023/08/23 04:21:50;;;;;;;0.00;0.00;;;;;;;;;;1734576;28;20188;-81
2023/08/23 04:22:41;;;;;;;0.00;0.00;;;;;;;;;;1729407;28;20651;-81
2023/08/23 04:23:32;;;;;;;0.00;0.00;;;;;;;;;;1728180;28;20227;-81
2023/08/23 04:24:24;;;;;;;0.00;0.00;;;;;;;;;;1733733;28;20195;-81
2023/08/23 04:25:15;;;;;;;0.00;0.00;;;;;;;;;;1733191;28;20238;-80
2023/08/23 04:26:06;;;;;;;0.00;0.00;;;;;;;;;;1728798;28;20218;-81
2023/08/23 04:26:58;;;;;;;0.00;0.00;;;;;;;;;;1726941;28;20307;-81
2023/08/23 04:27:49;;;;;;;0.00;0.00;;;;;;;;;;1728865;28;20244;-81
2023/08/23 04:28:43;;;;;;;0.00;0.00;;;;;;;;;;1734207;28;20258;-81
2023/08/23 04:29:34;;;;;;;0.00;0.00;;;;;;;;;;1734634;28;20203;-81
2023/08/23 04:30:26;;;;;;;0.00;0.00;;;;;;;;;;1731871;28;20644;-80
2023/08/23 04:31:17;;;;;;;0.00;0.00;;;;;;;;;;1735075;28;20207;-80
2023/08/23 04:32:12;;;;;;;0.00;0.00;;;;;;;;;;1731480;28;20253;-80
2023/08/23 04:33:04;;;;;;;0.00;0.00;;;;;;;;;;1730146;28;20210;-80
2023/08/23 04:33:55;;;;;;;0.00;0.00;;;;;;;;;;1733239;28;20616;-79
2023/08/23 04:34:48;;;;;;;0.00;0.00;;;;;;;;;;1733910;28;20227;-81
2023/08/23 04:35:39;;;;;;;0.00;0.00;;;;;;;;;;1728036;28;20508;-80
2023/08/23 04:36:30;;;;;;;0.00;0.00;;;;;;;;;;1734108;28;20298;-80
2023/08/23 04:37:22;;;;;;;0.00;0.00;;;;;;;;;;1733517;28;20199;-79
2023/08/23 04:38:14;;;;;;;0.00;0.00;;;;;;;;;;1734263;28;20663;-80
2023/08/23 04:39:05;;;;;;;0.00;0.00;;;;;;;;;;1733984;28;20253;-80
2023/08/23 04:39:57;;;;;;;0.00;0.00;;;;;;;;;;1734221;28;20231;-80
2023/08/23 04:40:48;;;;;;;0.00;0.00;;;;;;;;;;1732486;28;20262;-80
2023/08/23 04:41:40;;;;;;;0.00;0.00;;;;;;;;;;1734149;28;20231;-80
2023/08/23 04:42:31;;;;;;;0.00;0.00;;;;;;;;;;1736159;28;20258;-80
2023/08/23 04:43:22;;;;;;;0.00;0.00;;;;;;;;;;1735979;28;20199;-80
2023/08/23 04:44:16;;;;;;;0.00;0.00;;;;;;;;;;1733329;28;20206;-80
2023/08/23 04:45:07;;;;;;;0.00;0.00;;;;;;;;;;1733543;28;20416;-80
2023/08/23 04:45:59;;;;;;;0.00;0.00;;;;;;;;;;1732377;28;20231;-80
2023/08/23 04:46:51;;;;;;;0.00;0.00;;;;;;;;;;1733807;28;20660;-80
2023/08/23 04:47:42;;;;;;;0.00;0.00;;;;;;;;;;1733579;28;20242;-80
2023/08/23 04:48:34;;;;;;;0.00;0.00;;;;;;;;;;1733936;28;20537;-80
2023/08/23 04:49:25;;;;;;;0.00;0.00;;;;;;;;;;1733514;28;20645;-80
2023/08/23 04:50:17;;;;;;;0.00;0.00;;;;;;;;;;1729902;28;20265;-80
2023/08/23 04:51:09;;;;;;;0.00;0.00;;;;;;;;;;1733441;28;20203;-80
2023/08/23 04:52:00;;;;;;;0.00;0.00;;;;;;;;;;1733506;28;20587;-80
2023/08/23 04:52:51;;;;;;;0.00;0.00;;;;;;;;;;1735101;28;20290;-80
2023/08/23 04:53:43;;;;;;;0.00;0.00;;;;;;;;;;1734148;28;20294;-80
2023/08/23 04:54:34;;;;;;;0.00;0.00;;;;;;;;;;1733867;28;20334;-80
2023/08/23 04:55:25;;;;;;;0.00;0.00;;;;;;;;;;1733030;28;20223;-80
2023/08/23 04:56:17;;;;;;;0.00;0.00;;;;;;;;;;1733339;28;20203;-80
2023/08/23 04:57:08;;;;;;;0.00;0.00;;;;;;;;;;1733778;28;20254;-80
2023/08/23 04:57:59;;;;;;;0.00;0.00;;;;;;;;;;1734447;28;20215;-80
2023/08/23 04:58:53;;;;;;;0.00;0.00;;;;;;;;;;1734060;28;20211;-80
2023/08/23 04:59:45;;;;;;;0.00;0.00;;;;;;;;;;1736715;28;20268;-80
2023/08/23 05:00:36;;;;;;;0.00;0.00;;;;;;;;;;1731523;28;20262;-80
2023/08/23 05:01:28;;;;;;;0.00;0.00;;;;;;;;;;1733994;28;20238;-80
2023/08/23 05:02:19;;;;;;;0.00;0.00;;;;;;;;;;1733358;28;20315;-80
2023/08/23 05:03:12;;;;;;;0.00;0.00;;;;;;;;;;1734347;28;20544;-80
2023/08/23 05:04:03;;;;;;;0.00;0.00;;;;;;;;;;1733563;28;20573;-80
2023/08/23 05:04:55;;;;;;;0.00;0.00;;;;;;;;;;1733860;28;20209;-80
2023/08/23 05:05:46;;;;;;;0.00;0.00;;;;;;;;;;1735479;28;20298;-80
2023/08/23 05:06:37;;;;;;;0.00;0.00;;;;;;;;;;1735282;28;20199;-81
2023/08/23 05:07:29;;;;;;;0.00;0.00;;;;;;;;;;1740196;28;20564;-81
2023/08/23 05:08:20;;;;;;;0.00;0.00;;;;;;;;;;1739355;28;20274;-81
2023/08/23 05:09:12;;;;;;;0.00;0.00;;;;;;;;;;1738808;28;20680;-80
2023/08/23 05:10:06;;;;;;;0.00;0.00;;;;;;;;;;1737893;28;20199;-80
2023/08/23 05:10:57;;;;;;;0.00;0.00;;;;;;;;;;1736151;28;20272;-80